Portada
METAR-TAF:

METAR-TAF

Aeropuertos :

Aeropuerto Internacional de Ahvaz

Ahvaz, Irán

latitud: 31-20N, longitud: 048-40E, altitud: 20 m

Observación

El informe se hizo hace 35 minutos, a las 22:00 UTC
Viento 2 kt del suroeste
Temperatura 30°C
Humedad 27%
Presión 1005 hPa
Visibilidad: 6000 m

METAR: OIAW 272200Z 23002KT 6000 NSC 30/09 Q1005

Hora: 03:05 (22:35 UTC)

Pronóstico

El informe se hizo hace 4 horas y 45 minutos, a las 17:50 UTC
Pronóstico válido del 27 a las 18 UTC al 28 a las 24 UTC
Viento 8 kt del oeste
Visibilidad: 7000 m
Temporalmente
del 27 a las 18 UTC al 27 a las 22 UTC
Visibilidad: 4000 m
Temporalmente
del 28 a las 00 UTC al 28 a las 06 UTC
Visibilidad: 4000 m
calima

TAF: OIAW 271750Z 2718/2824 28008KT 7000 NSC TEMPO 2718/2722 4000 DU/HZ TEMPO 2800/2806 4000 HZ

Observaciones y pronósticos meteorológicos de más de 4000 aeropuertos (mensajes METAR y TAF).

Los puntos amarillos y rojos representan las estaciones disponibles.

Ponga el ratón en el punto deseado para ver el nombre de la estación.

Haga clic para ver las observaciones y los pronósticos meteorológicos.

Para cambiar el mapa : haga clic en los botones verdes con una cruz de color negro para hacer un zoom, en el botón verde con un guión para alejar o en las flechas verdes para mapas adyacentes.


METAR-TAF: